createdAt,value
2018-12-07T00:02:26.522Z,5.33
2018-12-07T00:04:53.847Z,4.70
2018-12-07T00:07:21.439Z,5.37
2018-12-07T00:09:49.222Z,4.90
2018-12-07T00:12:17.379Z,5.00
2018-12-07T00:14:44.711Z,5.37
2018-12-07T00:17:19.506Z,5.50
2018-12-07T00:19:48.004Z,4.60
2018-12-07T00:22:15.614Z,4.87
2018-12-07T00:24:43.335Z,5.10
2018-12-07T00:27:10.828Z,4.90
2018-12-07T00:29:38.227Z,5.00
2018-12-07T00:32:06.082Z,4.90
2018-12-07T00:34:33.722Z,5.40
2018-12-07T00:37:02.462Z,5.07
2018-12-07T00:39:29.812Z,5.00
2018-12-07T00:41:58.327Z,4.80
2018-12-07T00:44:26.802Z,4.50
2018-12-07T00:46:54.217Z,4.27
2018-12-07T00:49:22.516Z,4.67
2018-12-07T00:51:50.343Z,4.70
2018-12-07T00:54:19.019Z,4.40
2018-12-07T00:56:46.650Z,4.00
2018-12-07T00:59:14.419Z,3.60
2018-12-07T01:01:41.839Z,3.97
2018-12-07T01:04:09.722Z,2.97
2018-12-07T01:06:37.666Z,3.33
2018-12-07T01:09:07.369Z,3.30
2018-12-07T01:11:35.744Z,3.47
2018-12-07T01:14:03.496Z,14.77
2018-12-07T01:16:31.622Z,8.47
2018-12-07T01:19:00.118Z,5.30
2018-12-07T01:21:27.579Z,5.17
2018-12-07T01:23:55.072Z,5.07
2018-12-07T01:26:22.881Z,5.00
2018-12-07T01:28:50.673Z,5.83
2018-12-07T01:31:17.971Z,6.00
2018-12-07T01:33:45.945Z,3.27
2018-12-07T01:36:13.240Z,2.40
2018-12-07T01:38:40.595Z,2.60
2018-12-07T01:41:09.659Z,2.40
2018-12-07T01:43:37.556Z,2.10
2018-12-07T01:46:07.023Z,2.70
2018-12-07T01:48:34.929Z,2.73
2018-12-07T01:51:02.692Z,2.20
2018-12-07T01:53:31.456Z,2.20
2018-12-07T01:56:00.041Z,2.47
2018-12-07T01:58:29.097Z,2.50
2018-12-07T02:00:58.273Z,2.20
2018-12-07T02:03:25.719Z,1.77
2018-12-07T02:05:54.589Z,1.97
2018-12-07T02:08:21.931Z,2.10
2018-12-07T02:10:50.035Z,1.90
2018-12-07T02:13:18.695Z,2.13
2018-12-07T02:15:46.296Z,2.60
2018-12-07T02:18:14.911Z,2.07
2018-12-07T02:20:42.280Z,2.10
2018-12-07T02:23:09.664Z,2.00
2018-12-07T02:25:37.774Z,1.60
2018-12-07T02:28:05.389Z,1.80
2018-12-07T02:30:33.244Z,1.50
2018-12-07T02:33:00.900Z,1.87
2018-12-07T02:35:29.686Z,1.60
2018-12-07T02:37:57.162Z,1.60
2018-12-07T02:40:24.701Z,1.70
2018-12-07T02:42:53.397Z,1.50
2018-12-07T02:45:21.781Z,1.40
2018-12-07T02:47:49.121Z,1.80
2018-12-07T02:50:16.579Z,1.30
2018-12-07T02:52:45.535Z,1.23
2018-12-07T02:55:13.183Z,1.80
2018-12-07T02:57:40.533Z,2.03
2018-12-07T03:00:08.473Z,1.70
2018-12-07T03:02:35.847Z,1.37
2018-12-07T03:05:03.707Z,1.30
2018-12-07T03:07:31.157Z,1.53
2018-12-07T03:09:59.081Z,1.40
2018-12-07T03:12:26.616Z,1.47
2018-12-07T03:14:54.804Z,1.50
2018-12-07T03:17:22.660Z,1.63
2018-12-07T03:19:50.324Z,1.53
2018-12-07T03:22:18.218Z,1.30
2018-12-07T03:24:46.065Z,1.33
2018-12-07T03:27:13.655Z,1.40
2018-12-07T03:29:42.651Z,1.37
2018-12-07T03:32:09.984Z,1.20
2018-12-07T03:34:37.609Z,1.00
2018-12-07T03:37:05.046Z,1.00
2018-12-07T03:39:32.478Z,1.20
2018-12-07T03:42:00.527Z,1.27
2018-12-07T03:44:27.852Z,1.30
2018-12-07T03:46:56.365Z,1.30
2018-12-07T03:49:23.770Z,1.50
2018-12-07T03:51:52.280Z,1.70
2018-12-07T03:54:19.812Z,1.50
2018-12-07T03:56:47.206Z,1.40
2018-12-07T03:59:14.935Z,1.80
2018-12-07T04:01:42.470Z,1.40
2018-12-07T04:04:10.287Z,1.53
2018-12-07T04:06:37.743Z,1.30
2018-12-07T04:09:07.008Z,1.27
2018-12-07T04:11:34.411Z,2.07
2018-12-07T04:14:02.623Z,1.70
2018-12-07T04:16:30.409Z,1.53
2018-12-07T04:18:58.654Z,1.50
2018-12-07T04:21:26.515Z,1.60
2018-12-07T04:23:55.751Z,1.63
2018-12-07T04:26:23.250Z,1.10
2018-12-07T04:28:50.536Z,1.47
2018-12-07T04:31:18.520Z,1.30
2018-12-07T04:33:47.284Z,1.47
2018-12-07T04:36:21.585Z,1.20
2018-12-07T04:38:49.554Z,1.17
2018-12-07T04:41:17.848Z,1.13
2018-12-07T04:43:45.200Z,1.13
2018-12-07T04:46:12.639Z,1.07
2018-12-07T04:48:39.992Z,1.10
2018-12-07T04:51:08.718Z,1.00
2018-12-07T04:53:36.223Z,1.10
2018-12-07T04:56:03.855Z,1.00
2018-12-07T04:58:31.203Z,1.00
2018-12-07T05:00:58.872Z,1.13
2018-12-07T05:03:26.337Z,1.00
2018-12-07T05:05:54.783Z,1.30
2018-12-07T05:08:23.020Z,1.27
2018-12-07T05:10:50.510Z,1.13
2018-12-07T05:13:18.870Z,1.00
2018-12-07T05:15:46.628Z,1.10
2018-12-07T05:18:14.414Z,0.90
2018-12-07T05:20:41.833Z,1.17
2018-12-07T05:23:10.351Z,1.67
2018-12-07T05:25:37.691Z,1.17
2018-12-07T05:28:05.113Z,1.37
2018-12-07T05:30:33.035Z,0.93
2018-12-07T05:33:00.429Z,1.07
2018-12-07T05:35:28.585Z,1.10
2018-12-07T05:37:56.930Z,1.00
2018-12-07T05:40:24.427Z,1.00
2018-12-07T05:42:53.429Z,1.17
2018-12-07T05:45:20.875Z,1.40
2018-12-07T05:47:48.679Z,1.40
2018-12-07T05:50:16.521Z,1.37
2018-12-07T05:52:44.183Z,1.00
2018-12-07T05:55:12.376Z,1.40
2018-12-07T05:57:39.825Z,1.40
2018-12-07T06:00:07.943Z,2.13
2018-12-07T06:02:35.278Z,1.40
2018-12-07T06:05:03.149Z,1.80
2018-12-07T06:07:30.569Z,1.80
2018-12-07T06:09:57.946Z,2.37
2018-12-07T06:12:25.811Z,2.30
2018-12-07T06:14:53.676Z,2.10
2018-12-07T06:17:22.088Z,2.50
2018-12-07T06:19:49.632Z,2.50
2018-12-07T06:22:17.652Z,2.93
2018-12-07T06:24:46.815Z,2.40
2018-12-07T06:27:14.086Z,2.40
2018-12-07T06:29:42.198Z,3.03
2018-12-07T06:32:10.325Z,2.53
2018-12-07T06:34:37.724Z,2.70
2018-12-07T06:37:07.088Z,3.33
2018-12-07T06:39:34.548Z,2.67
2018-12-07T06:42:02.155Z,2.60
2018-12-07T06:44:29.832Z,2.37
2018-12-07T06:46:57.166Z,2.47
2018-12-07T06:49:24.598Z,2.73
2018-12-07T06:51:52.106Z,2.10
2018-12-07T06:54:19.900Z,2.43
2018-12-07T06:56:47.223Z,2.07
2018-12-07T06:59:15.038Z,2.10
2018-12-07T07:01:42.395Z,2.00
2018-12-07T07:04:10.276Z,1.70
2018-12-07T07:06:38.061Z,1.77
2018-12-07T07:09:07.798Z,1.73
2018-12-07T07:11:35.758Z,2.00
2018-12-07T07:14:03.655Z,2.43
2018-12-07T07:16:31.401Z,2.00
2018-12-07T07:18:59.562Z,2.13
2018-12-07T07:21:26.941Z,1.90
2018-12-07T07:23:55.616Z,2.20
2018-12-07T07:26:23.200Z,2.47
2018-12-07T07:28:50.947Z,2.33
2018-12-07T07:31:18.484Z,2.77
2018-12-07T07:33:45.828Z,2.57
2018-12-07T07:36:13.999Z,2.23
2018-12-07T07:38:42.353Z,3.73
2018-12-07T07:41:09.739Z,2.77
2018-12-07T07:43:37.055Z,3.10
2018-12-07T07:46:05.511Z,2.90
2018-12-07T07:48:34.336Z,3.07
2018-12-07T07:51:03.138Z,3.53
2018-12-07T07:53:30.553Z,3.20
2018-12-07T07:55:58.364Z,3.30
2018-12-07T07:58:25.979Z,3.20
2018-12-07T08:00:53.697Z,3.33
2018-12-07T08:03:21.798Z,4.30
2018-12-07T08:05:49.903Z,3.07
2018-12-07T08:08:18.191Z,2.33
2018-12-07T08:10:45.972Z,2.03
2018-12-07T08:13:15.233Z,1.90
2018-12-07T08:15:42.519Z,2.07
2018-12-07T08:18:10.063Z,2.27
2018-12-07T08:20:39.014Z,1.93
2018-12-07T08:23:06.723Z,2.73
2018-12-07T08:25:34.685Z,1.77
2018-12-07T08:28:02.820Z,2.03
2018-12-07T08:30:30.279Z,1.97
2018-12-07T08:32:59.531Z,1.93
2018-12-07T08:35:27.104Z,2.23
2018-12-07T08:37:54.467Z,1.57
2018-12-07T08:40:22.266Z,2.13
2018-12-07T08:42:50.287Z,1.70
2018-12-07T08:45:17.823Z,2.57
2018-12-07T08:47:45.259Z,1.77
2018-12-07T08:50:13.124Z,1.40
2018-12-07T08:52:40.473Z,1.57
2018-12-07T08:55:08.779Z,1.70
2018-12-07T08:57:36.515Z,1.20
2018-12-07T09:00:06.107Z,2.87
2018-12-07T09:02:34.347Z,1.40
2018-12-07T09:05:02.532Z,1.67
2018-12-07T09:07:29.829Z,1.40
2018-12-07T09:09:57.262Z,1.37
2018-12-07T09:12:24.811Z,1.40
2018-12-07T09:14:53.435Z,1.70
2018-12-07T09:17:22.020Z,1.37
2018-12-07T09:19:49.345Z,2.30
2018-12-07T09:22:16.683Z,1.43
2018-12-07T09:24:44.308Z,1.20
2018-12-07T09:27:11.954Z,1.40
2018-12-07T09:29:39.262Z,1.37
2018-12-07T09:32:06.748Z,1.57
2018-12-07T09:34:34.199Z,1.20
2018-12-07T09:37:02.538Z,1.20
2018-12-07T09:39:30.476Z,1.10
2018-12-07T09:41:58.439Z,1.07
2018-12-07T09:44:26.139Z,1.33
2018-12-07T09:46:53.469Z,1.13
2018-12-07T09:49:20.823Z,2.37
2018-12-07T09:51:48.531Z,1.53
2018-12-07T09:54:16.187Z,1.60
2018-12-07T09:56:43.479Z,1.40
2018-12-07T09:59:11.112Z,1.10
2018-12-07T10:01:38.468Z,1.20
2018-12-07T10:04:06.346Z,1.00
2018-12-07T10:06:34.315Z,1.30
2018-12-07T10:09:02.098Z,1.53
2018-12-07T10:11:30.052Z,1.40
2018-12-07T10:13:58.247Z,1.50
2018-12-07T10:16:25.999Z,1.23
2018-12-07T10:18:53.391Z,1.43
2018-12-07T10:21:20.992Z,1.57
2018-12-07T10:23:48.997Z,1.30
2018-12-07T10:26:16.638Z,2.43
2018-12-07T10:28:45.352Z,1.57
2018-12-07T10:31:13.486Z,2.23
2018-12-07T10:33:41.592Z,1.40
2018-12-07T10:36:09.223Z,2.03
2018-12-07T10:38:36.674Z,1.60
2018-12-07T10:41:04.053Z,1.90
2018-12-07T10:43:31.374Z,1.40
2018-12-07T10:45:58.677Z,1.70
2018-12-07T10:48:26.084Z,1.87
2018-12-07T10:50:53.627Z,2.10
2018-12-07T10:53:21.372Z,1.70
2018-12-07T10:55:50.415Z,1.70
2018-12-07T10:58:18.127Z,2.23
2018-12-07T11:00:51.431Z,2.23
2018-12-07T11:03:24.971Z,2.30
2018-12-07T11:05:58.308Z,1.83
2018-12-07T11:08:32.316Z,2.23
2018-12-07T11:11:05.055Z,1.93
2018-12-07T11:13:33.354Z,1.67
2018-12-07T11:16:06.997Z,1.60
2018-12-07T11:18:40.711Z,1.70
2018-12-07T11:21:13.982Z,1.50
2018-12-07T11:23:47.362Z,1.53
2018-12-07T11:26:21.564Z,1.57
2018-12-07T11:28:55.543Z,1.60
2018-12-07T11:31:28.560Z,1.37
2018-12-07T11:34:05.171Z,1.77
2018-12-07T11:36:32.745Z,1.43
2018-12-07T11:39:00.125Z,1.63
2018-12-07T11:41:27.800Z,1.90
2018-12-07T11:43:55.659Z,1.73
2018-12-07T11:46:23.585Z,1.50
2018-12-07T11:48:51.218Z,1.37
2018-12-07T11:51:18.729Z,1.30
2018-12-07T11:53:48.111Z,0.90
2018-12-07T11:56:16.672Z,1.30
2018-12-07T11:58:45.244Z,1.33
2018-12-07T12:01:12.738Z,1.60
2018-12-07T12:03:41.901Z,1.30
2018-12-07T12:06:09.250Z,1.00
2018-12-07T12:08:36.679Z,1.80
2018-12-07T12:11:04.114Z,1.20
2018-12-07T12:13:31.828Z,1.43
2018-12-07T12:15:59.919Z,1.80
2018-12-07T12:18:27.247Z,1.93
2018-12-07T12:20:54.596Z,1.00
2018-12-07T12:23:21.914Z,1.10
2018-12-07T12:25:49.261Z,0.93
2018-12-07T12:28:17.146Z,1.33
2018-12-07T12:30:45.514Z,1.70
2018-12-07T12:33:14.864Z,2.83
2018-12-07T12:35:42.156Z,0.90
2018-12-07T12:38:09.974Z,1.40
2018-12-07T12:40:37.638Z,1.10
2018-12-07T12:43:05.227Z,1.33
2018-12-07T12:45:32.598Z,1.10
2018-12-07T12:48:00.640Z,0.80
2018-12-07T12:50:34.371Z,0.90
2018-12-07T12:53:01.844Z,1.00
2018-12-07T12:55:29.223Z,0.80
2018-12-07T12:57:57.109Z,1.00
2018-12-07T13:00:24.607Z,0.90
2018-12-07T13:02:52.643Z,0.80
2018-12-07T13:05:20.012Z,0.73
2018-12-07T13:07:48.987Z,0.63
2018-12-07T13:10:16.619Z,0.90
2018-12-07T13:12:44.281Z,0.97
2018-12-07T13:15:12.255Z,0.80
2018-12-07T13:17:39.957Z,0.97
2018-12-07T13:20:08.717Z,0.90
2018-12-07T13:22:37.329Z,0.70
2018-12-07T13:25:07.116Z,0.77
2018-12-07T13:27:34.791Z,0.70
2018-12-07T13:30:03.415Z,0.70
2018-12-07T13:32:31.141Z,0.60
2018-12-07T13:34:58.827Z,0.60
2018-12-07T13:37:27.564Z,0.80
2018-12-07T13:39:55.517Z,0.70
2018-12-07T13:42:24.405Z,0.67
2018-12-07T13:44:51.820Z,0.70
2018-12-07T13:47:19.816Z,0.80
2018-12-07T13:49:49.347Z,0.70
2018-12-07T13:52:17.468Z,1.10
2018-12-07T13:54:44.871Z,0.90
2018-12-07T13:57:13.273Z,1.07
2018-12-07T13:59:41.989Z,0.90
2018-12-07T14:02:09.822Z,0.60
2018-12-07T14:04:39.116Z,0.80
2018-12-07T14:07:06.564Z,0.60
2018-12-07T14:09:34.663Z,1.00
2018-12-07T14:12:02.612Z,1.00
2018-12-07T14:14:30.578Z,0.70
2018-12-07T14:16:58.248Z,0.83
2018-12-07T14:19:26.018Z,1.50
2018-12-07T14:21:55.474Z,0.80
2018-12-07T14:24:23.088Z,0.97
2018-12-07T14:26:51.489Z,0.90
2018-12-07T14:29:19.367Z,0.90
2018-12-07T14:31:46.928Z,1.17
2018-12-07T14:34:14.546Z,1.10
2018-12-07T14:36:42.591Z,1.00
2018-12-07T14:39:10.152Z,0.70
2018-12-07T14:41:37.685Z,0.83
2018-12-07T14:44:07.149Z,0.90
2018-12-07T14:46:34.689Z,0.77
2018-12-07T14:49:02.977Z,0.80
2018-12-07T14:51:32.055Z,0.80
2018-12-07T14:54:00.374Z,0.80
2018-12-07T14:56:28.671Z,0.87
2018-12-07T14:58:56.303Z,0.77
2018-12-07T15:01:24.582Z,0.60
2018-12-07T15:03:52.917Z,0.80
2018-12-07T15:06:20.908Z,0.60
2018-12-07T15:08:49.009Z,0.50
2018-12-07T15:11:17.060Z,0.73
2018-12-07T15:13:45.302Z,0.60
2018-12-07T15:16:13.187Z,0.70
2018-12-07T15:18:40.909Z,0.70
2018-12-07T15:21:09.093Z,0.53
2018-12-07T15:23:36.612Z,0.70
2018-12-07T15:26:04.124Z,1.10
2018-12-07T15:28:32.067Z,0.90
2018-12-07T15:30:59.886Z,0.80
2018-12-07T15:33:28.205Z,0.70
2018-12-07T15:35:55.915Z,0.70
2018-12-07T15:38:23.482Z,0.60
2018-12-07T15:40:51.217Z,0.50
2018-12-07T15:43:19.396Z,0.60
2018-12-07T15:45:46.971Z,0.60
2018-12-07T15:48:16.138Z,0.60
2018-12-07T15:50:44.688Z,0.70
2018-12-07T15:53:12.482Z,0.60
2018-12-07T15:55:41.106Z,0.60
2018-12-07T15:58:09.096Z,0.50
2018-12-07T16:00:36.849Z,1.60
2018-12-07T16:03:05.221Z,0.90
2018-12-07T16:05:32.988Z,1.13
2018-12-07T16:08:01.216Z,1.23
2018-12-07T16:10:29.866Z,0.70
2018-12-07T16:12:58.952Z,0.80
2018-12-07T16:15:27.666Z,0.80
2018-12-07T16:17:55.832Z,0.80
2018-12-07T16:20:23.440Z,1.23
2018-12-07T16:22:50.979Z,1.10
2018-12-07T16:25:18.640Z,0.90
2018-12-07T16:27:47.482Z,0.60
2018-12-07T16:30:16.886Z,0.93
2018-12-07T16:32:45.779Z,0.70
2018-12-07T16:35:13.354Z,0.80
2018-12-07T16:37:41.598Z,1.00
2018-12-07T16:40:10.173Z,0.70
2018-12-07T16:42:39.000Z,0.90
2018-12-07T16:45:07.648Z,0.70
2018-12-07T16:47:36.174Z,0.83
2018-12-07T16:50:04.908Z,0.70
2018-12-07T16:52:32.628Z,0.67
2018-12-07T16:55:01.578Z,0.90
2018-12-07T16:57:29.388Z,1.10
2018-12-07T16:59:57.210Z,1.10
2018-12-07T17:02:24.746Z,1.07
2018-12-07T17:04:52.382Z,0.90
2018-12-07T17:07:20.475Z,0.80
2018-12-07T17:09:49.391Z,0.77
2018-12-07T17:12:17.501Z,0.77
2018-12-07T17:14:45.278Z,0.80
2018-12-07T17:17:13.064Z,0.63
2018-12-07T17:19:41.386Z,0.80
2018-12-07T17:22:09.194Z,0.70
2018-12-07T17:24:38.679Z,0.70
2018-12-07T17:27:06.605Z,0.80
2018-12-07T17:29:34.261Z,0.80
2018-12-07T17:32:02.387Z,0.80
2018-12-07T17:34:30.718Z,0.80
2018-12-07T17:36:59.732Z,0.93
2018-12-07T17:39:28.610Z,0.80
2018-12-07T17:41:57.643Z,0.87
2018-12-07T17:44:25.497Z,0.90
2018-12-07T17:46:53.319Z,0.80
2018-12-07T17:49:20.824Z,0.80
2018-12-07T17:51:48.915Z,0.80
2018-12-07T17:54:16.386Z,0.83
2018-12-07T17:56:45.801Z,1.00
2018-12-07T17:59:13.871Z,0.80
2018-12-07T18:01:41.385Z,1.00
2018-12-07T18:04:09.340Z,0.83
2018-12-07T18:06:37.148Z,0.90
2018-12-07T18:09:07.860Z,1.20
2018-12-07T18:11:35.498Z,1.07
2018-12-07T18:14:03.524Z,0.93
2018-12-07T18:16:32.211Z,0.83
2018-12-07T18:18:59.783Z,1.03
2018-12-07T18:21:27.378Z,1.00
2018-12-07T18:23:55.086Z,0.97
2018-12-07T18:26:22.593Z,0.60
2018-12-07T18:28:50.755Z,0.93
2018-12-07T18:31:18.304Z,0.73
2018-12-07T18:33:46.793Z,0.80
2018-12-07T18:36:14.309Z,0.77
2018-12-07T18:38:42.625Z,1.00
2018-12-07T18:41:10.956Z,1.20
2018-12-07T18:43:38.615Z,1.03
2018-12-07T18:46:07.570Z,1.10
2018-12-07T18:48:35.674Z,0.73
2018-12-07T18:51:04.402Z,0.90
2018-12-07T18:53:31.942Z,0.80
2018-12-07T18:55:59.349Z,1.00
2018-12-07T18:58:27.636Z,0.80
2018-12-07T19:00:55.957Z,0.90
2018-12-07T19:03:23.691Z,0.83
2018-12-07T19:05:52.348Z,1.17
2018-12-07T19:08:21.072Z,1.10
2018-12-07T19:10:50.414Z,1.00
2018-12-07T19:13:17.890Z,1.10
2018-12-07T19:15:46.591Z,0.80
2018-12-07T19:18:15.400Z,0.90
2018-12-07T19:20:43.083Z,0.87
2018-12-07T19:23:10.501Z,0.90
2018-12-07T19:25:37.867Z,1.20
2018-12-07T19:28:05.367Z,0.87
2018-12-07T19:30:34.962Z,0.90
2018-12-07T19:33:03.073Z,0.80
2018-12-07T19:35:30.609Z,0.80
2018-12-07T19:37:59.479Z,0.90
2018-12-07T19:40:27.640Z,0.60
2018-12-07T19:42:55.249Z,0.70
2018-12-07T19:45:23.916Z,0.60
2018-12-07T19:47:51.263Z,0.50
2018-12-07T19:50:19.643Z,0.60
2018-12-07T19:52:47.559Z,0.83
2018-12-07T19:55:15.434Z,0.50
2018-12-07T19:57:42.940Z,0.50
2018-12-07T20:00:10.593Z,0.40
2018-12-07T20:02:38.531Z,0.50
2018-12-07T20:05:07.123Z,0.60
2018-12-07T20:07:35.914Z,0.47
2018-12-07T20:10:06.556Z,0.50
2018-12-07T20:12:34.662Z,0.50
2018-12-07T20:15:03.705Z,0.53
2018-12-07T20:17:31.302Z,0.40
2018-12-07T20:19:59.419Z,0.40
2018-12-07T20:22:26.814Z,0.50
2018-12-07T20:24:54.399Z,0.40
2018-12-07T20:27:23.948Z,0.40
2018-12-07T20:29:51.925Z,0.60
2018-12-07T20:32:20.036Z,0.60
2018-12-07T20:34:54.513Z,0.50
2018-12-07T20:37:23.354Z,0.60
2018-12-07T20:39:51.284Z,0.60
2018-12-07T20:42:19.933Z,0.53
2018-12-07T20:44:48.107Z,0.40
2018-12-07T20:47:24.603Z,0.50
2018-12-07T20:49:46.981Z,0.60
2018-12-07T20:52:15.090Z,0.53
2018-12-07T20:54:42.680Z,0.50
2018-12-07T20:57:11.038Z,0.60
2018-12-07T20:59:40.075Z,0.50
2018-12-07T21:02:07.891Z,0.50
2018-12-07T21:04:37.881Z,0.60
2018-12-07T21:07:22.485Z,0.50
2018-12-07T21:14:35.080Z,0.50
2018-12-07T21:17:13.310Z,0.70
2018-12-07T21:19:47.794Z,0.53
2018-12-07T21:22:15.301Z,2.80
2018-12-07T21:24:44.305Z,0.70
2018-12-07T21:27:12.361Z,0.90
2018-12-07T21:29:40.008Z,0.50
2018-12-07T21:32:13.442Z,0.70
2018-12-07T21:34:57.585Z,0.50
2018-12-07T21:37:25.571Z,0.80
2018-12-07T21:40:04.191Z,0.70
2018-12-07T21:42:31.889Z,0.67
2018-12-07T21:45:00.071Z,1.70
2018-12-07T21:47:43.317Z,0.60
2018-12-07T21:50:13.185Z,0.87
2018-12-07T21:52:41.177Z,0.60
2018-12-07T21:55:09.199Z,0.60
2018-12-07T21:57:37.103Z,0.80
2018-12-07T22:00:05.719Z,0.73
2018-12-07T22:02:33.440Z,0.80
2018-12-07T22:05:01.628Z,0.87
2018-12-07T22:07:29.268Z,0.90
2018-12-07T22:09:56.889Z,0.80
2018-12-07T22:12:24.573Z,0.80
2018-12-07T22:14:51.987Z,2.17
2018-12-07T22:17:19.962Z,3.30
2018-12-07T22:19:47.409Z,2.30
2018-12-07T22:22:15.020Z,1.10
2018-12-07T22:24:42.825Z,0.80
2018-12-07T22:27:10.863Z,0.80
2018-12-07T22:29:38.906Z,0.87
2018-12-07T22:32:06.605Z,1.00
2018-12-07T22:34:34.732Z,1.13
2018-12-07T22:37:02.807Z,0.73
2018-12-07T22:39:30.297Z,0.80
2018-12-07T22:41:58.058Z,0.93
2018-12-07T22:44:25.750Z,0.90
2018-12-07T22:46:53.148Z,1.03
2018-12-07T22:49:21.399Z,0.97
2018-12-07T22:51:48.815Z,0.70
2018-12-07T22:54:16.119Z,0.93
2018-12-07T22:56:43.786Z,1.23
2018-12-07T22:59:11.135Z,1.07
2018-12-07T23:01:38.900Z,0.93
2018-12-07T23:04:07.139Z,1.00
2018-12-07T23:06:34.967Z,1.10
2018-12-07T23:09:04.135Z,0.90
2018-12-07T23:11:31.612Z,1.37
2018-12-07T23:13:59.318Z,0.83
2018-12-07T23:16:26.778Z,1.00
2018-12-07T23:18:54.399Z,1.00
2018-12-07T23:21:22.150Z,1.00
2018-12-07T23:23:49.468Z,1.00
2018-12-07T23:26:18.834Z,0.90
2018-12-07T23:28:46.151Z,1.30
2018-12-07T23:31:13.812Z,0.83
2018-12-07T23:33:41.401Z,1.23
2018-12-07T23:36:09.727Z,1.10
2018-12-07T23:38:37.487Z,0.80
2018-12-07T23:41:05.194Z,1.20
2018-12-07T23:43:32.533Z,1.07
2018-12-07T23:45:59.978Z,1.70
2018-12-07T23:48:27.829Z,3.43
2018-12-07T23:50:55.170Z,0.90
2018-12-07T23:53:23.336Z,1.13
2018-12-07T23:55:51.002Z,0.80
2018-12-07T23:58:19.280Z,1.10
